Terminal Aerodrome Forecast
Issued by NWS

Home | Current Version | Previous Version | Text Only | Print | Product List | Glossary Off
Versions: 1 2 3 4 5 6 7 8 9 10 11 12 13 14 15

000
FTUS43 KICT 311720
TAFCNU
TAF
KCNU 311720Z 3118/0118 VRB03KT P6SM SCT040
     FM010000 20006KT P6SM SKC
     FM011500 22010KT P6SM BKN120=

USA.gov is the U.S. government's official web portal to all federal, state and local government web resources and services.